createdAt,value
2018-02-09T00:01:12.759Z,963.64
2018-02-09T00:15:05.941Z,963.42
2018-02-09T00:30:07.827Z,963.4
2018-02-09T00:45:11.544Z,963.45
2018-02-09T01:00:04.685Z,963.4
2018-02-09T01:15:04.619Z,963.37
2018-02-09T01:30:05.380Z,963.32
2018-02-09T01:45:05.507Z,963.21
2018-02-09T02:00:05.009Z,962.94
2018-02-09T02:15:06.046Z,962.86
2018-02-09T02:30:08.343Z,962.67
2018-02-09T02:45:04.954Z,962.62
2018-02-09T03:00:06.095Z,962.67
2018-02-09T03:15:05.077Z,962.51
2018-02-09T03:30:05.238Z,962.32
2018-02-09T03:45:04.749Z,962.22
2018-02-09T04:00:05.513Z,962.32
2018-02-09T04:15:04.985Z,962.54
2018-02-09T04:30:05.320Z,962.54
2018-02-09T04:45:05.442Z,962.3
2018-02-09T05:00:04.589Z,962.32
2018-02-09T05:15:04.709Z,962.43
2018-02-09T05:30:08.442Z,962.35
2018-02-09T05:45:04.514Z,962.24
2018-02-09T06:00:04.937Z,962.22
2018-02-09T06:15:04.430Z,962.08
2018-02-09T06:30:04.816Z,962
2018-02-09T06:45:04.723Z,962
2018-02-09T07:00:05.098Z,961.98
2018-02-09T07:15:06.118Z,961.79
2018-02-09T07:30:04.829Z,961.95
2018-02-09T07:45:04.731Z,961.74
2018-02-09T08:00:04.606Z,961.41
2018-02-09T08:15:12.153Z,961.12
2018-02-09T08:30:06.512Z,960.85
2018-02-09T08:45:05.052Z,960.99
2018-02-09T09:00:04.467Z,960.64
2018-02-09T09:15:04.377Z,960.18
2018-02-09T09:30:05.029Z,960.02
2018-02-09T09:45:04.554Z,960.05
2018-02-09T10:00:05.007Z,959.94
2018-02-09T10:15:04.403Z,959.97
2018-02-09T10:30:04.998Z,959.62
2018-02-09T10:45:04.410Z,960.08
2018-02-09T11:00:05.290Z,959.65
2018-02-09T11:15:05.265Z,959.46
2018-02-09T11:30:04.426Z,959.03
2018-02-09T11:45:05.354Z,958.98
2018-02-09T12:00:05.271Z,958.87
2018-02-09T12:15:04.778Z,958.82
2018-02-09T12:30:04.913Z,958.5
2018-02-09T12:45:04.392Z,958.26
2018-02-09T13:00:04.757Z,958.1
2018-02-09T13:15:05.146Z,957.7
2018-02-09T13:30:05.216Z,957.75
2018-02-09T13:45:05.592Z,957.75
2018-02-09T14:00:05.003Z,958.1
2018-02-09T14:15:04.912Z,957.67
2018-02-09T14:30:04.544Z,957.45
2018-02-09T14:45:04.921Z,957.29
2018-02-09T15:00:05.365Z,957.13
2018-02-09T15:15:05.281Z,957.43
2018-02-09T15:30:05.041Z,957.35
2018-02-09T15:45:05.968Z,957.24
2018-02-09T16:00:04.367Z,957.19
2018-02-09T16:15:04.759Z,957.32
2018-02-09T16:30:04.912Z,957.64
2018-02-09T16:45:04.790Z,957.72
2018-02-09T17:00:04.683Z,957.94
2018-02-09T17:15:05.053Z,958.23
2018-02-09T17:30:06.204Z,959.03
2018-02-09T17:45:06.078Z,959.27
2018-02-09T18:00:05.059Z,959.65
2018-02-09T18:15:04.969Z,959.89
2018-02-09T18:30:05.230Z,959.94
2018-02-09T18:45:04.683Z,960.21
2018-02-09T19:00:05.533Z,960.29
2018-02-09T19:15:05.115Z,960.53
2018-02-09T19:30:05.215Z,960.51
2018-02-09T19:45:04.660Z,960.48
2018-02-09T20:00:05.161Z,960.45
2018-02-09T20:15:04.695Z,960.61
2018-02-09T20:30:05.023Z,960.59
2018-02-09T20:45:04.469Z,960.37
2018-02-09T21:00:04.869Z,960.48
2018-02-09T21:15:05.883Z,960.56
2018-02-09T21:30:05.058Z,960.37
2018-02-09T21:45:07.548Z,960.29
2018-02-09T22:00:04.981Z,960.29
2018-02-09T22:15:04.886Z,960.32
2018-02-09T22:30:04.557Z,960.32
2018-02-09T22:45:05.205Z,960.34
2018-02-09T23:00:04.650Z,960.34
2018-02-09T23:15:05.819Z,960.32
2018-02-09T23:30:05.210Z,960.34
2018-02-09T23:45:06.701Z,960.37
